sensor_id;sensor_type;location;lat;lon;timestamp;temperature;humidity
45807;DHT22;31507;51.494;7.518;2023-11-21T00:01:52;6.10;99.90
45807;DHT22;31507;51.494;7.518;2023-11-21T00:04:17;6.10;99.90
45807;DHT22;31507;51.494;7.518;2023-11-21T00:06:43;6.20;99.90
45807;DHT22;31507;51.494;7.518;2023-11-21T00:09:12;6.20;99.90
45807;DHT22;31507;51.494;7.518;2023-11-21T00:11:38;6.30;99.90
45807;DHT22;31507;51.494;7.518;2023-11-21T00:14:04;6.30;99.90
45807;DHT22;31507;51.494;7.518;2023-11-21T00:16:29;6.30;99.90
45807;DHT22;31507;51.494;7.518;2023-11-21T00:18:55;6.30;99.90
45807;DHT22;31507;51.494;7.518;2023-11-21T00:21:20;6.30;99.90
45807;DHT22;31507;51.494;7.518;2023-11-21T00:23:45;6.30;99.90
45807;DHT22;31507;51.494;7.518;2023-11-21T00:26:11;6.40;99.90
45807;DHT22;31507;51.494;7.518;2023-11-21T00:28:37;6.40;99.90
45807;DHT22;31507;51.494;7.518;2023-11-21T00:31:03;6.40;99.90
45807;DHT22;31507;51.494;7.518;2023-11-21T00:33:29;6.40;99.90
45807;DHT22;31507;51.494;7.518;2023-11-21T00:35:54;6.40;99.90
45807;DHT22;31507;51.494;7.518;2023-11-21T00:38:20;6.40;99.90
45807;DHT22;31507;51.494;7.518;2023-11-21T00:40:46;6.40;99.90
45807;DHT22;31507;51.494;7.518;2023-11-21T00:43:12;6.40;99.90
45807;DHT22;31507;51.494;7.518;2023-11-21T00:45:37;6.40;99.90
45807;DHT22;31507;51.494;7.518;2023-11-21T00:48:03;6.40;99.90
45807;DHT22;31507;51.494;7.518;2023-11-21T00:50:30;6.40;99.90
45807;DHT22;31507;51.494;7.518;2023-11-21T00:52:55;6.40;99.90
45807;DHT22;31507;51.494;7.518;2023-11-21T00:55:21;6.40;99.90
45807;DHT22;31507;51.494;7.518;2023-11-21T00:57:46;6.40;99.90
45807;DHT22;31507;51.494;7.518;2023-11-21T01:00:12;6.40;99.90
45807;DHT22;31507;51.494;7.518;2023-11-21T01:02:45;6.40;99.90
45807;DHT22;31507;51.494;7.518;2023-11-21T01:05:12;6.40;99.90
45807;DHT22;31507;51.494;7.518;2023-11-21T01:07:37;6.40;99.90
45807;DHT22;31507;51.494;7.518;2023-11-21T01:10:04;6.40;99.90
45807;DHT22;31507;51.494;7.518;2023-11-21T01:12:34;6.40;99.90
45807;DHT22;31507;51.494;7.518;2023-11-21T01:15:00;6.40;99.90
45807;DHT22;31507;51.494;7.518;2023-11-21T01:17:26;6.40;99.90
45807;DHT22;31507;51.494;7.518;2023-11-21T01:19:51;6.40;99.90
45807;DHT22;31507;51.494;7.518;2023-11-21T01:22:17;6.50;99.90
45807;DHT22;31507;51.494;7.518;2023-11-21T01:24:43;6.50;99.90
45807;DHT22;31507;51.494;7.518;2023-11-21T01:27:08;6.40;99.90
45807;DHT22;31507;51.494;7.518;2023-11-21T01:29:34;6.40;99.90
45807;DHT22;31507;51.494;7.518;2023-11-21T01:32:02;6.40;99.90
45807;DHT22;31507;51.494;7.518;2023-11-21T01:34:27;6.40;99.90
45807;DHT22;31507;51.494;7.518;2023-11-21T01:36:53;6.40;99.90
45807;DHT22;31507;51.494;7.518;2023-11-21T01:39:19;6.40;99.90
45807;DHT22;31507;51.494;7.518;2023-11-21T01:41:52;6.30;99.90
45807;DHT22;31507;51.494;7.518;2023-11-21T01:44:17;6.30;99.90
45807;DHT22;31507;51.494;7.518;2023-11-21T01:46:45;6.30;99.90
45807;DHT22;31507;51.494;7.518;2023-11-21T01:49:10;6.30;99.90
45807;DHT22;31507;51.494;7.518;2023-11-21T01:51:41;6.30;99.90
45807;DHT22;31507;51.494;7.518;2023-11-21T01:54:09;6.30;99.90
45807;DHT22;31507;51.494;7.518;2023-11-21T01:56:37;6.30;99.90
45807;DHT22;31507;51.494;7.518;2023-11-21T01:59:02;6.30;99.90
45807;DHT22;31507;51.494;7.518;2023-11-21T02:01:28;6.30;99.90
45807;DHT22;31507;51.494;7.518;2023-11-21T02:03:53;6.30;99.90
45807;DHT22;31507;51.494;7.518;2023-11-21T02:06:21;6.30;99.90
45807;DHT22;31507;51.494;7.518;2023-11-21T02:08:47;6.30;99.90
45807;DHT22;31507;51.494;7.518;2023-11-21T02:11:13;6.30;99.90
45807;DHT22;31507;51.494;7.518;2023-11-21T02:13:38;6.30;99.90
45807;DHT22;31507;51.494;7.518;2023-11-21T02:16:09;6.30;99.90
45807;DHT22;31507;51.494;7.518;2023-11-21T02:18:34;6.20;99.90
45807;DHT22;31507;51.494;7.518;2023-11-21T02:21:03;6.20;99.90
45807;DHT22;31507;51.494;7.518;2023-11-21T02:23:29;6.20;99.90
45807;DHT22;31507;51.494;7.518;2023-11-21T02:25:54;6.20;99.90
45807;DHT22;31507;51.494;7.518;2023-11-21T02:28:20;6.20;99.90
45807;DHT22;31507;51.494;7.518;2023-11-21T02:30:53;6.20;99.90
45807;DHT22;31507;51.494;7.518;2023-11-21T02:33:24;6.20;99.90
45807;DHT22;31507;51.494;7.518;2023-11-21T02:35:50;6.20;99.90
45807;DHT22;31507;51.494;7.518;2023-11-21T02:38:20;6.20;99.90
45807;DHT22;31507;51.494;7.518;2023-11-21T02:40:46;6.20;99.90
45807;DHT22;31507;51.494;7.518;2023-11-21T02:43:11;6.10;99.90
45807;DHT22;31507;51.494;7.518;2023-11-21T02:45:37;6.20;99.90
45807;DHT22;31507;51.494;7.518;2023-11-21T02:48:02;6.20;99.90
45807;DHT22;31507;51.494;7.518;2023-11-21T02:50:28;6.20;99.90
45807;DHT22;31507;51.494;7.518;2023-11-21T02:52:55;6.20;99.90
45807;DHT22;31507;51.494;7.518;2023-11-21T02:55:22;6.20;99.90
45807;DHT22;31507;51.494;7.518;2023-11-21T02:57:50;6.20;99.90
45807;DHT22;31507;51.494;7.518;2023-11-21T03:00:16;6.20;99.90
45807;DHT22;31507;51.494;7.518;2023-11-21T03:02:42;6.30;99.90
45807;DHT22;31507;51.494;7.518;2023-11-21T03:05:08;6.30;99.90
45807;DHT22;31507;51.494;7.518;2023-11-21T03:07:34;6.30;99.90
45807;DHT22;31507;51.494;7.518;2023-11-21T03:10:00;6.40;99.90
45807;DHT22;31507;51.494;7.518;2023-11-21T03:12:26;6.40;99.90
45807;DHT22;31507;51.494;7.518;2023-11-21T03:14:52;6.30;99.90
45807;DHT22;31507;51.494;7.518;2023-11-21T03:17:19;6.40;99.90
45807;DHT22;31507;51.494;7.518;2023-11-21T03:19:45;6.40;99.90
45807;DHT22;31507;51.494;7.518;2023-11-21T03:22:10;6.40;99.90
45807;DHT22;31507;51.494;7.518;2023-11-21T03:24:37;6.40;99.90
45807;DHT22;31507;51.494;7.518;2023-11-21T03:27:03;6.40;99.90
45807;DHT22;31507;51.494;7.518;2023-11-21T03:29:29;6.50;99.90
45807;DHT22;31507;51.494;7.518;2023-11-21T03:31:54;6.50;99.90
45807;DHT22;31507;51.494;7.518;2023-11-21T03:34:24;6.50;99.90
45807;DHT22;31507;51.494;7.518;2023-11-21T03:36:50;6.60;99.90
45807;DHT22;31507;51.494;7.518;2023-11-21T03:39:15;6.50;99.90
45807;DHT22;31507;51.494;7.518;2023-11-21T03:41:41;6.60;99.90
45807;DHT22;31507;51.494;7.518;2023-11-21T03:44:06;6.60;99.90
45807;DHT22;31507;51.494;7.518;2023-11-21T03:46:32;6.60;99.90
45807;DHT22;31507;51.494;7.518;2023-11-21T03:48:57;6.60;99.90
45807;DHT22;31507;51.494;7.518;2023-11-21T03:51:23;6.60;99.90
45807;DHT22;31507;51.494;7.518;2023-11-21T03:53:48;6.60;99.90
45807;DHT22;31507;51.494;7.518;2023-11-21T03:56:14;6.60;99.90
45807;DHT22;31507;51.494;7.518;2023-11-21T03:58:39;6.60;99.90
45807;DHT22;31507;51.494;7.518;2023-11-21T04:01:05;6.60;99.90
45807;DHT22;31507;51.494;7.518;2023-11-21T04:03:31;6.60;99.90
45807;DHT22;31507;51.494;7.518;2023-11-21T04:05:56;6.60;99.90
45807;DHT22;31507;51.494;7.518;2023-11-21T04:08:22;6.70;99.90
45807;DHT22;31507;51.494;7.518;2023-11-21T04:10:47;6.70;99.90
45807;DHT22;31507;51.494;7.518;2023-11-21T04:13:13;6.70;99.90
45807;DHT22;31507;51.494;7.518;2023-11-21T04:15:39;6.70;99.90
45807;DHT22;31507;51.494;7.518;2023-11-21T04:18:05;6.70;99.90
45807;DHT22;31507;51.494;7.518;2023-11-21T04:20:30;6.80;99.90
45807;DHT22;31507;51.494;7.518;2023-11-21T04:22:56;6.80;99.90
45807;DHT22;31507;51.494;7.518;2023-11-21T04:25:21;6.80;99.90
45807;DHT22;31507;51.494;7.518;2023-11-21T04:27:48;6.70;99.90
45807;DHT22;31507;51.494;7.518;2023-11-21T04:30:14;6.80;99.90
45807;DHT22;31507;51.494;7.518;2023-11-21T04:32:40;6.80;99.90
45807;DHT22;31507;51.494;7.518;2023-11-21T04:35:05;6.80;99.90
45807;DHT22;31507;51.494;7.518;2023-11-21T04:37:31;6.80;99.90
45807;DHT22;31507;51.494;7.518;2023-11-21T04:39:57;6.80;99.90
45807;DHT22;31507;51.494;7.518;2023-11-21T04:42:22;6.80;99.90
45807;DHT22;31507;51.494;7.518;2023-11-21T04:44:51;6.80;99.90
45807;DHT22;31507;51.494;7.518;2023-11-21T04:47:18;6.80;99.90
45807;DHT22;31507;51.494;7.518;2023-11-21T04:49:45;6.80;99.90
45807;DHT22;31507;51.494;7.518;2023-11-21T04:52:15;6.80;99.90
45807;DHT22;31507;51.494;7.518;2023-11-21T04:54:50;6.80;99.90
45807;DHT22;31507;51.494;7.518;2023-11-21T04:57:15;6.80;99.90
45807;DHT22;31507;51.494;7.518;2023-11-21T04:59:43;6.80;99.90
45807;DHT22;31507;51.494;7.518;2023-11-21T05:02:12;6.70;99.90
45807;DHT22;31507;51.494;7.518;2023-11-21T05:04:39;6.70;99.90
45807;DHT22;31507;51.494;7.518;2023-11-21T05:07:05;6.70;99.90
45807;DHT22;31507;51.494;7.518;2023-11-21T05:09:31;6.60;99.90
45807;DHT22;31507;51.494;7.518;2023-11-21T05:11:58;6.60;99.90
45807;DHT22;31507;51.494;7.518;2023-11-21T05:14:23;6.60;99.90
45807;DHT22;31507;51.494;7.518;2023-11-21T05:16:49;6.50;99.90
45807;DHT22;31507;51.494;7.518;2023-11-21T05:19:16;6.40;99.90
45807;DHT22;31507;51.494;7.518;2023-11-21T05:21:41;6.40;99.90
45807;DHT22;31507;51.494;7.518;2023-11-21T05:24:07;6.30;99.90
45807;DHT22;31507;51.494;7.518;2023-11-21T05:26:32;6.20;99.90
45807;DHT22;31507;51.494;7.518;2023-11-21T05:28:58;6.20;99.90
45807;DHT22;31507;51.494;7.518;2023-11-21T05:31:24;6.10;99.90
45807;DHT22;31507;51.494;7.518;2023-11-21T05:33:57;6.20;99.90
45807;DHT22;31507;51.494;7.518;2023-11-21T05:36:24;6.20;99.90
45807;DHT22;31507;51.494;7.518;2023-11-21T05:38:58;6.10;99.90
45807;DHT22;31507;51.494;7.518;2023-11-21T05:41:24;6.10;99.90
45807;DHT22;31507;51.494;7.518;2023-11-21T05:43:52;6.10;99.90
45807;DHT22;31507;51.494;7.518;2023-11-21T05:46:19;6.00;99.90
45807;DHT22;31507;51.494;7.518;2023-11-21T05:48:45;6.10;99.90
45807;DHT22;31507;51.494;7.518;2023-11-21T05:51:11;6.10;99.90
45807;DHT22;31507;51.494;7.518;2023-11-21T05:53:38;6.20;99.90
45807;DHT22;31507;51.494;7.518;2023-11-21T05:56:04;6.30;99.90
45807;DHT22;31507;51.494;7.518;2023-11-21T05:58:32;6.30;99.90
45807;DHT22;31507;51.494;7.518;2023-11-21T06:01:05;6.30;99.90
45807;DHT22;31507;51.494;7.518;2023-11-21T06:03:32;6.30;99.90
45807;DHT22;31507;51.494;7.518;2023-11-21T06:05:58;6.30;99.90
45807;DHT22;31507;51.494;7.518;2023-11-21T06:08:24;6.30;99.90
45807;DHT22;31507;51.494;7.518;2023-11-21T06:10:50;6.20;99.90
45807;DHT22;31507;51.494;7.518;2023-11-21T06:13:17;6.30;99.90
45807;DHT22;31507;51.494;7.518;2023-11-21T06:15:46;6.30;99.90
45807;DHT22;31507;51.494;7.518;2023-11-21T06:18:12;6.30;99.90
45807;DHT22;31507;51.494;7.518;2023-11-21T06:20:38;6.30;99.90
45807;DHT22;31507;51.494;7.518;2023-11-21T06:23:04;6.30;99.90
45807;DHT22;31507;51.494;7.518;2023-11-21T06:25:30;6.40;99.90
45807;DHT22;31507;51.494;7.518;2023-11-21T06:27:58;6.30;99.90
45807;DHT22;31507;51.494;7.518;2023-11-21T06:30:24;6.30;99.90
45807;DHT22;31507;51.494;7.518;2023-11-21T06:32:49;6.30;99.90
45807;DHT22;31507;51.494;7.518;2023-11-21T06:35:16;6.30;99.90
45807;DHT22;31507;51.494;7.518;2023-11-21T06:37:41;6.20;99.90
45807;DHT22;31507;51.494;7.518;2023-11-21T06:40:12;6.10;99.90
45807;DHT22;31507;51.494;7.518;2023-11-21T06:42:40;6.10;99.90
45807;DHT22;31507;51.494;7.518;2023-11-21T06:45:06;6.10;99.90
45807;DHT22;31507;51.494;7.518;2023-11-21T06:47:32;6.00;99.90
45807;DHT22;31507;51.494;7.518;2023-11-21T06:49:58;6.00;99.90
45807;DHT22;31507;51.494;7.518;2023-11-21T06:52:23;6.00;99.90
45807;DHT22;31507;51.494;7.518;2023-11-21T06:54:49;6.00;99.90
45807;DHT22;31507;51.494;7.518;2023-11-21T06:57:17;6.00;99.90
45807;DHT22;31507;51.494;7.518;2023-11-21T06:59:43;6.00;99.90
45807;DHT22;31507;51.494;7.518;2023-11-21T07:02:09;5.90;99.90
45807;DHT22;31507;51.494;7.518;2023-11-21T07:04:37;6.00;99.90
45807;DHT22;31507;51.494;7.518;2023-11-21T07:07:03;6.00;99.90
45807;DHT22;31507;51.494;7.518;2023-11-21T07:09:28;6.00;99.90
45807;DHT22;31507;51.494;7.518;2023-11-21T07:11:54;6.00;99.90
45807;DHT22;31507;51.494;7.518;2023-11-21T07:14:20;6.10;99.90
45807;DHT22;31507;51.494;7.518;2023-11-21T07:16:46;6.00;99.90
45807;DHT22;31507;51.494;7.518;2023-11-21T07:19:12;6.10;99.90
45807;DHT22;31507;51.494;7.518;2023-11-21T07:21:38;6.10;99.90
45807;DHT22;31507;51.494;7.518;2023-11-21T07:24:03;6.10;99.90
45807;DHT22;31507;51.494;7.518;2023-11-21T07:26:30;6.20;99.90
45807;DHT22;31507;51.494;7.518;2023-11-21T07:28:55;6.20;99.90
45807;DHT22;31507;51.494;7.518;2023-11-21T07:31:24;6.30;99.90
45807;DHT22;31507;51.494;7.518;2023-11-21T07:33:49;6.30;99.90
45807;DHT22;31507;51.494;7.518;2023-11-21T07:36:16;6.40;99.90
45807;DHT22;31507;51.494;7.518;2023-11-21T07:38:46;6.40;99.90
45807;DHT22;31507;51.494;7.518;2023-11-21T07:41:15;6.50;99.90
45807;DHT22;31507;51.494;7.518;2023-11-21T07:43:44;6.50;99.90
45807;DHT22;31507;51.494;7.518;2023-11-21T07:46:10;6.60;99.90
45807;DHT22;31507;51.494;7.518;2023-11-21T07:48:38;6.60;99.90
45807;DHT22;31507;51.494;7.518;2023-11-21T07:51:04;6.60;99.90
45807;DHT22;31507;51.494;7.518;2023-11-21T07:53:29;6.70;99.90
45807;DHT22;31507;51.494;7.518;2023-11-21T07:55:58;6.70;99.90
45807;DHT22;31507;51.494;7.518;2023-11-21T07:58:27;6.80;99.90
45807;DHT22;31507;51.494;7.518;2023-11-21T08:00:53;6.80;99.90
45807;DHT22;31507;51.494;7.518;2023-11-21T08:03:19;6.90;99.90
45807;DHT22;31507;51.494;7.518;2023-11-21T08:05:44;6.90;99.90
45807;DHT22;31507;51.494;7.518;2023-11-21T08:08:10;7.00;99.90
45807;DHT22;31507;51.494;7.518;2023-11-21T08:10:36;7.10;99.90
45807;DHT22;31507;51.494;7.518;2023-11-21T08:13:02;7.10;99.90
45807;DHT22;31507;51.494;7.518;2023-11-21T08:15:29;7.10;99.90
45807;DHT22;31507;51.494;7.518;2023-11-21T08:17:54;7.20;99.90
45807;DHT22;31507;51.494;7.518;2023-11-21T08:20:20;7.30;99.90
45807;DHT22;31507;51.494;7.518;2023-11-21T08:22:48;7.30;99.90
45807;DHT22;31507;51.494;7.518;2023-11-21T08:25:14;7.40;99.90
45807;DHT22;31507;51.494;7.518;2023-11-21T08:27:39;7.40;99.90
45807;DHT22;31507;51.494;7.518;2023-11-21T08:30:05;7.40;99.90
45807;DHT22;31507;51.494;7.518;2023-11-21T08:32:31;7.50;99.90
45807;DHT22;31507;51.494;7.518;2023-11-21T08:34:59;7.50;99.90
45807;DHT22;31507;51.494;7.518;2023-11-21T08:37:25;7.50;99.90
45807;DHT22;31507;51.494;7.518;2023-11-21T08:39:52;7.60;99.90
45807;DHT22;31507;51.494;7.518;2023-11-21T08:42:18;7.60;99.90
45807;DHT22;31507;51.494;7.518;2023-11-21T08:44:44;7.60;99.90
45807;DHT22;31507;51.494;7.518;2023-11-21T08:47:09;7.60;99.90
45807;DHT22;31507;51.494;7.518;2023-11-21T08:49:35;7.60;99.90
45807;DHT22;31507;51.494;7.518;2023-11-21T08:52:00;7.60;99.90
45807;DHT22;31507;51.494;7.518;2023-11-21T08:54:26;7.60;99.90
45807;DHT22;31507;51.494;7.518;2023-11-21T08:56:52;7.60;99.90
45807;DHT22;31507;51.494;7.518;2023-11-21T08:59:17;7.60;99.90
45807;DHT22;31507;51.494;7.518;2023-11-21T09:01:43;7.60;99.90
45807;DHT22;31507;51.494;7.518;2023-11-21T09:04:08;7.60;99.90
45807;DHT22;31507;51.494;7.518;2023-11-21T09:06:34;7.60;99.90
45807;DHT22;31507;51.494;7.518;2023-11-21T09:09:00;7.70;99.90
45807;DHT22;31507;51.494;7.518;2023-11-21T09:11:26;7.70;99.90
45807;DHT22;31507;51.494;7.518;2023-11-21T09:13:56;7.70;99.90
45807;DHT22;31507;51.494;7.518;2023-11-21T09:16:23;7.80;99.90
45807;DHT22;31507;51.494;7.518;2023-11-21T09:18:48;7.90;99.90
45807;DHT22;31507;51.494;7.518;2023-11-21T09:21:14;7.90;99.90
45807;DHT22;31507;51.494;7.518;2023-11-21T09:23:39;8.00;99.90
45807;DHT22;31507;51.494;7.518;2023-11-21T09:26:05;8.10;99.90
45807;DHT22;31507;51.494;7.518;2023-11-21T09:28:30;8.10;99.90
45807;DHT22;31507;51.494;7.518;2023-11-21T09:30:56;8.10;99.90
45807;DHT22;31507;51.494;7.518;2023-11-21T09:33:21;8.20;99.90
45807;DHT22;31507;51.494;7.518;2023-11-21T09:35:50;8.20;99.90
45807;DHT22;31507;51.494;7.518;2023-11-21T09:38:16;8.30;99.90
45807;DHT22;31507;51.494;7.518;2023-11-21T09:40:42;8.30;99.90
45807;DHT22;31507;51.494;7.518;2023-11-21T09:43:16;8.40;99.90
45807;DHT22;31507;51.494;7.518;2023-11-21T09:45:46;8.50;99.90
45807;DHT22;31507;51.494;7.518;2023-11-21T09:48:12;8.50;99.90
45807;DHT22;31507;51.494;7.518;2023-11-21T09:50:39;8.60;99.90
45807;DHT22;31507;51.494;7.518;2023-11-21T09:53:18;8.70;99.90
45807;DHT22;31507;51.494;7.518;2023-11-21T09:55:49;8.70;99.90
45807;DHT22;31507;51.494;7.518;2023-11-21T09:58:16;8.70;99.90
45807;DHT22;31507;51.494;7.518;2023-11-21T10:00:43;8.70;99.90
45807;DHT22;31507;51.494;7.518;2023-11-21T10:03:09;8.70;99.90
45807;DHT22;31507;51.494;7.518;2023-11-21T10:05:35;8.70;99.90
45807;DHT22;31507;51.494;7.518;2023-11-21T10:08:01;8.70;99.90
45807;DHT22;31507;51.494;7.518;2023-11-21T10:10:28;8.60;99.90
45807;DHT22;31507;51.494;7.518;2023-11-21T10:12:56;8.60;99.90
45807;DHT22;31507;51.494;7.518;2023-11-21T10:15:22;8.60;99.90
45807;DHT22;31507;51.494;7.518;2023-11-21T10:17:51;8.60;99.90
45807;DHT22;31507;51.494;7.518;2023-11-21T10:20:21;8.50;99.90
45807;DHT22;31507;51.494;7.518;2023-11-21T10:22:47;8.50;99.90
45807;DHT22;31507;51.494;7.518;2023-11-21T10:25:13;8.50;99.90
45807;DHT22;31507;51.494;7.518;2023-11-21T10:27:43;8.60;99.90
45807;DHT22;31507;51.494;7.518;2023-11-21T10:30:11;8.60;99.90
45807;DHT22;31507;51.494;7.518;2023-11-21T10:32:40;8.60;99.90
45807;DHT22;31507;51.494;7.518;2023-11-21T10:35:06;8.70;99.90
45807;DHT22;31507;51.494;7.518;2023-11-21T10:37:38;8.70;99.90
45807;DHT22;31507;51.494;7.518;2023-11-21T10:40:08;8.70;99.90
45807;DHT22;31507;51.494;7.518;2023-11-21T10:42:37;8.70;99.90
45807;DHT22;31507;51.494;7.518;2023-11-21T10:45:03;8.80;99.90
45807;DHT22;31507;51.494;7.518;2023-11-21T10:47:30;8.80;99.90
45807;DHT22;31507;51.494;7.518;2023-11-21T10:49:56;8.70;99.90
45807;DHT22;31507;51.494;7.518;2023-11-21T10:52:21;8.80;99.90
45807;DHT22;31507;51.494;7.518;2023-11-21T10:54:51;8.80;99.90
45807;DHT22;31507;51.494;7.518;2023-11-21T10:57:17;8.80;99.90
45807;DHT22;31507;51.494;7.518;2023-11-21T10:59:44;8.80;99.90
45807;DHT22;31507;51.494;7.518;2023-11-21T11:02:29;8.80;99.90
45807;DHT22;31507;51.494;7.518;2023-11-21T11:04:57;8.80;99.90
45807;DHT22;31507;51.494;7.518;2023-11-21T11:07:27;8.80;99.90
45807;DHT22;31507;51.494;7.518;2023-11-21T11:09:53;8.80;99.90
45807;DHT22;31507;51.494;7.518;2023-11-21T11:12:20;8.80;99.90
45807;DHT22;31507;51.494;7.518;2023-11-21T11:14:45;8.80;99.90
45807;DHT22;31507;51.494;7.518;2023-11-21T11:17:11;8.80;99.90
45807;DHT22;31507;51.494;7.518;2023-11-21T11:19:39;8.80;99.90
45807;DHT22;31507;51.494;7.518;2023-11-21T11:24:52;8.80;99.90
45807;DHT22;31507;51.494;7.518;2023-11-21T11:35:17;8.80;99.90
45807;DHT22;31507;51.494;7.518;2023-11-21T11:37:43;8.70;99.90
45807;DHT22;31507;51.494;7.518;2023-11-21T11:40:12;8.70;99.90
45807;DHT22;31507;51.494;7.518;2023-11-21T11:42:37;8.70;99.90
45807;DHT22;31507;51.494;7.518;2023-11-21T11:45:17;8.70;99.90
45807;DHT22;31507;51.494;7.518;2023-11-21T11:47:42;8.60;99.90
45807;DHT22;31507;51.494;7.518;2023-11-21T11:50:12;8.50;99.90
45807;DHT22;31507;51.494;7.518;2023-11-21T11:52:47;8.50;99.90
45807;DHT22;31507;51.494;7.518;2023-11-21T11:55:16;8.50;99.90
45807;DHT22;31507;51.494;7.518;2023-11-21T11:57:49;8.50;99.90
45807;DHT22;31507;51.494;7.518;2023-11-21T12:02:55;8.50;99.90
45807;DHT22;31507;51.494;7.518;2023-11-21T12:05:22;8.40;99.90
45807;DHT22;31507;51.494;7.518;2023-11-21T12:07:55;8.40;99.90
45807;DHT22;31507;51.494;7.518;2023-11-21T12:10:25;8.40;99.90
45807;DHT22;31507;51.494;7.518;2023-11-21T12:12:53;8.40;99.90
45807;DHT22;31507;51.494;7.518;2023-11-21T12:15:18;8.40;99.90
45807;DHT22;31507;51.494;7.518;2023-11-21T12:17:44;8.40;99.90
45807;DHT22;31507;51.494;7.518;2023-11-21T12:20:10;8.40;99.90
45807;DHT22;31507;51.494;7.518;2023-11-21T12:25:14;8.40;99.90
45807;DHT22;31507;51.494;7.518;2023-11-21T12:27:45;8.40;99.90
45807;DHT22;31507;51.494;7.518;2023-11-21T12:30:12;8.50;99.90
45807;DHT22;31507;51.494;7.518;2023-11-21T12:32:39;8.50;99.90
45807;DHT22;31507;51.494;7.518;2023-11-21T12:35:05;8.50;99.90
45807;DHT22;31507;51.494;7.518;2023-11-21T12:37:32;8.40;99.90
45807;DHT22;31507;51.494;7.518;2023-11-21T12:39:57;8.40;99.90
45807;DHT22;31507;51.494;7.518;2023-11-21T12:42:23;8.40;99.90
45807;DHT22;31507;51.494;7.518;2023-11-21T12:45:05;8.40;99.90
45807;DHT22;31507;51.494;7.518;2023-11-21T12:47:33;8.40;99.90
45807;DHT22;31507;51.494;7.518;2023-11-21T12:50:01;8.30;99.90
45807;DHT22;31507;51.494;7.518;2023-11-21T12:52:28;8.30;99.90
45807;DHT22;31507;51.494;7.518;2023-11-21T12:54:53;8.30;99.90
45807;DHT22;31507;51.494;7.518;2023-11-21T12:57:19;8.30;99.90
45807;DHT22;31507;51.494;7.518;2023-11-21T12:59:45;8.30;99.90
45807;DHT22;31507;51.494;7.518;2023-11-21T13:02:12;8.20;99.90
45807;DHT22;31507;51.494;7.518;2023-11-21T13:04:40;8.20;99.90
45807;DHT22;31507;51.494;7.518;2023-11-21T13:07:06;8.30;99.90
45807;DHT22;31507;51.494;7.518;2023-11-21T13:09:40;8.20;99.90
45807;DHT22;31507;51.494;7.518;2023-11-21T13:12:06;8.20;99.90
45807;DHT22;31507;51.494;7.518;2023-11-21T13:14:33;8.30;99.90
45807;DHT22;31507;51.494;7.518;2023-11-21T13:16:59;8.30;99.90
45807;DHT22;31507;51.494;7.518;2023-11-21T13:19:24;8.20;99.90
45807;DHT22;31507;51.494;7.518;2023-11-21T13:21:52;8.20;99.90
45807;DHT22;31507;51.494;7.518;2023-11-21T13:24:18;8.20;99.90
45807;DHT22;31507;51.494;7.518;2023-11-21T13:26:44;8.20;99.90
45807;DHT22;31507;51.494;7.518;2023-11-21T13:29:12;8.20;99.90
45807;DHT22;31507;51.494;7.518;2023-11-21T13:31:38;8.20;99.90
45807;DHT22;31507;51.494;7.518;2023-11-21T13:34:04;8.20;99.90
45807;DHT22;31507;51.494;7.518;2023-11-21T13:36:30;8.10;99.90
45807;DHT22;31507;51.494;7.518;2023-11-21T13:38:58;8.20;99.90
45807;DHT22;31507;51.494;7.518;2023-11-21T13:41:24;8.10;99.90
45807;DHT22;31507;51.494;7.518;2023-11-21T13:43:56;8.10;99.90
45807;DHT22;31507;51.494;7.518;2023-11-21T13:46:31;8.10;99.90
45807;DHT22;31507;51.494;7.518;2023-11-21T13:49:02;8.10;99.90
45807;DHT22;31507;51.494;7.518;2023-11-21T13:51:35;8.10;99.90
45807;DHT22;31507;51.494;7.518;2023-11-21T13:54:09;8.00;99.90
45807;DHT22;31507;51.494;7.518;2023-11-21T13:56:36;8.00;99.90
45807;DHT22;31507;51.494;7.518;2023-11-21T13:59:02;8.10;99.90
45807;DHT22;31507;51.494;7.518;2023-11-21T14:01:38;8.00;99.90
45807;DHT22;31507;51.494;7.518;2023-11-21T14:04:19;8.10;99.90
45807;DHT22;31507;51.494;7.518;2023-11-21T14:06:56;8.10;99.90
45807;DHT22;31507;51.494;7.518;2023-11-21T14:09:22;8.10;99.90
45807;DHT22;31507;51.494;7.518;2023-11-21T14:11:49;8.00;99.90
45807;DHT22;31507;51.494;7.518;2023-11-21T14:14:15;8.10;99.90
45807;DHT22;31507;51.494;7.518;2023-11-21T14:16:41;8.10;99.90
45807;DHT22;31507;51.494;7.518;2023-11-21T14:19:07;8.10;99.90
45807;DHT22;31507;51.494;7.518;2023-11-21T14:21:44;8.10;99.90
45807;DHT22;31507;51.494;7.518;2023-11-21T14:24:13;8.10;99.90
45807;DHT22;31507;51.494;7.518;2023-11-21T14:26:40;8.00;99.90
45807;DHT22;31507;51.494;7.518;2023-11-21T14:29:06;8.00;99.90
45807;DHT22;31507;51.494;7.518;2023-11-21T14:31:31;7.90;99.90
45807;DHT22;31507;51.494;7.518;2023-11-21T14:33:57;8.00;99.90
45807;DHT22;31507;51.494;7.518;2023-11-21T14:36:22;8.00;99.90
45807;DHT22;31507;51.494;7.518;2023-11-21T14:38:49;7.90;99.90
45807;DHT22;31507;51.494;7.518;2023-11-21T14:41:14;7.90;99.90
45807;DHT22;31507;51.494;7.518;2023-11-21T14:43:40;7.90;99.90
45807;DHT22;31507;51.494;7.518;2023-11-21T14:46:07;7.90;99.90
45807;DHT22;31507;51.494;7.518;2023-11-21T14:48:35;7.80;99.90
45807;DHT22;31507;51.494;7.518;2023-11-21T14:51:13;7.80;99.90
45807;DHT22;31507;51.494;7.518;2023-11-21T14:54:02;7.90;99.90
45807;DHT22;31507;51.494;7.518;2023-11-21T14:56:33;7.80;99.90
45807;DHT22;31507;51.494;7.518;2023-11-21T14:59:00;7.80;99.90
45807;DHT22;31507;51.494;7.518;2023-11-21T15:01:41;7.70;99.90
45807;DHT22;31507;51.494;7.518;2023-11-21T15:04:18;7.60;99.90
45807;DHT22;31507;51.494;7.518;2023-11-21T15:07:04;7.60;99.90
45807;DHT22;31507;51.494;7.518;2023-11-21T15:09:29;7.50;99.90
45807;DHT22;31507;51.494;7.518;2023-11-21T15:11:58;7.50;99.90
45807;DHT22;31507;51.494;7.518;2023-11-21T15:14:34;7.50;99.90
45807;DHT22;31507;51.494;7.518;2023-11-21T15:17:02;7.50;99.90
45807;DHT22;31507;51.494;7.518;2023-11-21T15:19:28;7.50;99.90
45807;DHT22;31507;51.494;7.518;2023-11-21T15:21:57;7.40;99.90
45807;DHT22;31507;51.494;7.518;2023-11-21T15:24:23;7.40;99.90
45807;DHT22;31507;51.494;7.518;2023-11-21T15:26:49;7.30;99.90
45807;DHT22;31507;51.494;7.518;2023-11-21T15:29:15;7.30;99.90
45807;DHT22;31507;51.494;7.518;2023-11-21T15:31:42;7.20;99.90
45807;DHT22;31507;51.494;7.518;2023-11-21T15:34:14;7.20;99.90
45807;DHT22;31507;51.494;7.518;2023-11-21T15:36:40;7.20;99.90
45807;DHT22;31507;51.494;7.518;2023-11-21T15:39:05;7.10;99.90
45807;DHT22;31507;51.494;7.518;2023-11-21T15:41:32;7.10;99.90
45807;DHT22;31507;51.494;7.518;2023-11-21T15:43:58;7.00;99.90
45807;DHT22;31507;51.494;7.518;2023-11-21T15:46:25;6.90;99.90
45807;DHT22;31507;51.494;7.518;2023-11-21T15:48:50;6.80;99.90
45807;DHT22;31507;51.494;7.518;2023-11-21T15:51:19;6.80;99.90
45807;DHT22;31507;51.494;7.518;2023-11-21T15:53:45;6.80;99.90
45807;DHT22;31507;51.494;7.518;2023-11-21T15:56:11;6.80;99.90
45807;DHT22;31507;51.494;7.518;2023-11-21T15:58:40;6.70;99.90
45807;DHT22;31507;51.494;7.518;2023-11-21T16:01:10;6.80;99.90